sensor_id;sensor_type;location;lat;lon;timestamp;pressure;altitude;pressure_sealevel;temperature;humidity
54439;BME280;40347;53.848;27.498;2024-01-30T17:18:54;1032.4;;;3.3;67.6
54439;BME280;40347;53.848;27.498;2024-01-30T17:23:54;1026.7;;;0;73
54439;BME280;40347;53.848;27.498;2024-01-30T17:29:30;1026.6;;;0.7;73.6
54439;BME280;40347;53.848;27.498;2024-01-30T17:33:54;1026.6;;;1.4;73.4
54439;BME280;40347;53.848;27.498;2024-01-30T17:38:55;1026.6;;;1.8;72.9
54439;BME280;40347;53.848;27.498;2024-01-30T17:44:06;1026.6;;;2.1;72.4
54439;BME280;40347;53.848;27.498;2024-01-30T17:49:24;1026.5;;;2.3;72
54439;BME280;40347;53.848;27.498;2024-01-30T17:54:14;1026.5;;;2.5;71.6
54439;BME280;40347;53.848;27.498;2024-01-30T17:59:06;1026.5;;;2.6;71.4
54439;BME280;40347;53.848;27.498;2024-01-30T18:04:12;1026.4;;;2.7;71.2
54439;BME280;40347;53.848;27.498;2024-01-30T18:09:12;1026.5;;;2.8;70.7
54439;BME280;40347;53.848;27.498;2024-01-30T18:14:20;1026.4;;;2.9;70.5
54439;BME280;40347;53.848;27.498;2024-01-30T18:19:13;1026.4;;;2.9;70.3
54439;BME280;40347;53.848;27.498;2024-01-30T18:24:30;1026.4;;;2.9;70.2
54439;BME280;40347;53.848;27.498;2024-01-30T18:29:14;1026.3;;;2.9;69.9
54439;BME280;40347;53.848;27.498;2024-01-30T18:34:12;1026.2;;;2.9;69.6
54439;BME280;40347;53.848;27.498;2024-01-30T18:39:14;1026.2;;;2.9;69.4
54439;BME280;40347;53.848;27.498;2024-01-30T18:43:54;1026.3;;;2.9;69.5
54439;BME280;40347;53.848;27.498;2024-01-30T18:49:16;1026.3;;;2.8;69.5
54439;BME280;40347;53.848;27.498;2024-01-30T18:54:02;1026.3;;;2.7;69.4
54439;BME280;40347;53.848;27.498;2024-01-30T18:59:23;1026.3;;;2.7;69.4
54439;BME280;40347;53.848;27.498;2024-01-30T19:04:20;1026.2;;;2.7;69.4
54439;BME280;40347;53.848;27.498;2024-01-30T19:08:54;1026.2;;;2.6;69.2
54439;BME280;40347;53.848;27.498;2024-01-30T19:14:02;1026.2;;;2.6;69.1
54439;BME280;40347;53.848;27.498;2024-01-30T19:19:34;1026.1;;;2.6;69.1
54439;BME280;40347;53.848;27.498;2024-01-30T19:24:44;1026.1;;;2.6;69.1
54439;BME280;40347;53.848;27.498;2024-01-30T19:28:54;1026.2;;;2.6;69
54439;BME280;40347;53.848;27.498;2024-01-30T19:34:22;1026.1;;;2.6;68.9
54439;BME280;40347;53.848;27.498;2024-01-30T19:39:02;1026.1;;;2.6;68.8
54439;BME280;40347;53.848;27.498;2024-01-30T19:44:24;1026.1;;;2.6;68.8
54439;BME280;40347;53.848;27.498;2024-01-30T19:49:02;1026.1;;;2.6;68.8
54439;BME280;40347;53.848;27.498;2024-01-30T19:53:55;1026;;;2.5;68.7
54439;BME280;40347;53.848;27.498;2024-01-30T19:59:20;1026;;;2.5;68.8
54439;BME280;40347;53.848;27.498;2024-01-30T20:04:06;1026;;;2.5;68.7
54439;BME280;40347;53.848;27.498;2024-01-30T20:09:08;1025.9;;;2.4;68.7
54439;BME280;40347;53.848;27.498;2024-01-30T20:13:54;1025.8;;;2.4;68.7
54439;BME280;40347;53.848;27.498;2024-01-30T20:19:02;1025.8;;;2.4;68.7
54439;BME280;40347;53.848;27.498;2024-01-30T20:24:24;1025.8;;;2.4;68.6
54439;BME280;40347;53.848;27.498;2024-01-30T20:28:54;1025.7;;;2.4;68.6
54439;BME280;40347;53.848;27.498;2024-01-30T20:34:34;1025.6;;;2.4;68.5
54439;BME280;40347;53.848;27.498;2024-01-30T20:39:00;1025.6;;;2.4;68.5
54439;BME280;40347;53.848;27.498;2024-01-30T20:43:54;1025.6;;;2.3;68.4
54439;BME280;40347;53.848;27.498;2024-01-30T20:49:02;1025.5;;;2.3;68.4
54439;BME280;40347;53.848;27.498;2024-01-30T20:54:06;1025.5;;;2.3;68.4
54439;BME280;40347;53.848;27.498;2024-01-30T20:59:24;1025.4;;;2.2;68.4
54439;BME280;40347;53.848;27.498;2024-01-30T21:04:14;1025.3;;;2.2;68.5
54439;BME280;40347;53.848;27.498;2024-01-30T21:09:24;1025.3;;;2.2;68.5
54439;BME280;40347;53.848;27.498;2024-01-30T21:14:06;1025.2;;;2.3;68.4
54439;BME280;40347;53.848;27.498;2024-01-30T21:19:34;1025.2;;;2.3;68.3
54439;BME280;40347;53.848;27.498;2024-01-30T21:23:54;1025.2;;;2.3;68.3
54439;BME280;40347;53.848;27.498;2024-01-30T21:29:12;1025.2;;;2.3;68.4
54439;BME280;40347;53.848;27.498;2024-01-30T21:34:20;1025.2;;;2.3;68.5
54439;BME280;40347;53.848;27.498;2024-01-30T21:38:54;1025.1;;;2.3;68.5
54439;BME280;40347;53.848;27.498;2024-01-30T21:44:20;1025.1;;;2.2;68.5
54439;BME280;40347;53.848;27.498;2024-01-30T21:49:30;1025.1;;;2.2;68.5
54439;BME280;40347;53.848;27.498;2024-01-30T21:53:54;1025;;;2.2;68.4
54439;BME280;40347;53.848;27.498;2024-01-30T21:58:54;1025;;;2.2;68.2
54439;BME280;40347;53.848;27.498;2024-01-30T22:03:54;1025;;;2.2;68.2
54439;BME280;40347;53.848;27.498;2024-01-30T22:09:22;1025;;;2.2;68.2
54439;BME280;40347;53.848;27.498;2024-01-30T22:14:02;1025;;;2.1;68.1
54439;BME280;40347;53.848;27.498;2024-01-30T22:19:30;1025;;;2.1;68.1
54439;BME280;40347;53.848;27.498;2024-01-30T22:24:06;1025;;;2;68.2
54439;BME280;40347;53.848;27.498;2024-01-30T22:28:56;1024.9;;;2;68.3
54439;BME280;40347;53.848;27.498;2024-01-30T22:33:54;1024.9;;;2;68.3
54439;BME280;40347;53.848;27.498;2024-01-30T22:39:07;1024.8;;;2;68.3
54439;BME280;40347;53.848;27.498;2024-01-30T22:44:14;1024.8;;;1.9;68.3
54439;BME280;40347;53.848;27.498;2024-01-30T22:49:12;1024.8;;;1.9;68.3
54439;BME280;40347;53.848;27.498;2024-01-30T22:54:14;1024.7;;;1.8;68.3
54439;BME280;40347;53.848;27.498;2024-01-30T22:59:30;1024.7;;;1.7;68.4
54439;BME280;40347;53.848;27.498;2024-01-30T23:03:54;1024.7;;;1.7;68.4
54439;BME280;40347;53.848;27.498;2024-01-30T23:09:34;1024.6;;;1.6;68.4
54439;BME280;40347;53.848;27.498;2024-01-30T23:14:12;1024.6;;;1.6;68.5
54439;BME280;40347;53.848;27.498;2024-01-30T23:19:12;1024.7;;;1.6;68.6
54439;BME280;40347;53.848;27.498;2024-01-30T23:23:54;1024.7;;;1.6;68.6
54439;BME280;40347;53.848;27.498;2024-01-30T23:28:54;1024.7;;;1.5;68.7
54439;BME280;40347;53.848;27.498;2024-01-30T23:33:54;1024.7;;;1.6;68.8
54439;BME280;40347;53.848;27.498;2024-01-30T23:39:02;1024.6;;;1.6;68.8
54439;BME280;40347;53.848;27.498;2024-01-30T23:44:02;1024.6;;;1.6;68.8
54439;BME280;40347;53.848;27.498;2024-01-30T23:49:02;1024.6;;;1.6;68.8
54439;BME280;40347;53.848;27.498;2024-01-30T23:53:54;1024.5;;;1.7;68.9
54439;BME280;40347;53.848;27.498;2024-01-30T23:59:06;1024.4;;;1.8;68.9
